sensor_id;sensor_type;location;lat;lon;timestamp;P1;durP1;ratioP1;P2;durP2;ratioP2
41532;SDS011;27262;-35.248;149.138;2022-10-01T00:02:13;2.50;;;0.63;;
41532;SDS011;27262;-35.248;149.138;2022-10-01T00:04:43;3.55;;;0.75;;
41532;SDS011;27262;-35.248;149.138;2022-10-01T00:07:14;2.35;;;0.68;;
41532;SDS011;27262;-35.248;149.138;2022-10-01T00:09:45;3.75;;;0.70;;
41532;SDS011;27262;-35.248;149.138;2022-10-01T00:12:16;7.57;;;1.40;;
41532;SDS011;27262;-35.248;149.138;2022-10-01T00:14:46;5.10;;;1.30;;
41532;SDS011;27262;-35.248;149.138;2022-10-01T00:17:16;7.30;;;1.20;;
41532;SDS011;27262;-35.248;149.138;2022-10-01T00:19:47;7.55;;;1.20;;
41532;SDS011;27262;-35.248;149.138;2022-10-01T00:22:17;3.38;;;0.80;;
41532;SDS011;27262;-35.248;149.138;2022-10-01T00:24:48;4.63;;;0.93;;
41532;SDS011;27262;-35.248;149.138;2022-10-01T00:27:18;5.88;;;1.10;;
41532;SDS011;27262;-35.248;149.138;2022-10-01T00:29:48;6.43;;;1.17;;
41532;SDS011;27262;-35.248;149.138;2022-10-01T00:32:22;5.43;;;1.05;;
41532;SDS011;27262;-35.248;149.138;2022-10-01T00:34:52;4.07;;;0.88;;
41532;SDS011;27262;-35.248;149.138;2022-10-01T00:37:22;5.70;;;1.02;;
41532;SDS011;27262;-35.248;149.138;2022-10-01T00:39:53;4.72;;;0.90;;
41532;SDS011;27262;-35.248;149.138;2022-10-01T00:42:24;4.72;;;0.98;;
41532;SDS011;27262;-35.248;149.138;2022-10-01T00:44:55;2.10;;;0.70;;
41532;SDS011;27262;-35.248;149.138;2022-10-01T00:50:12;5.25;;;0.98;;
41532;SDS011;27262;-35.248;149.138;2022-10-01T00:53:06;4.28;;;0.95;;
41532;SDS011;27262;-35.248;149.138;2022-10-01T00:55:43;4.53;;;0.63;;
41532;SDS011;27262;-35.248;149.138;2022-10-01T00:58:19;4.80;;;0.93;;
41532;SDS011;27262;-35.248;149.138;2022-10-01T01:00:53;4.00;;;0.65;;
41532;SDS011;27262;-35.248;149.138;2022-10-01T01:03:24;3.00;;;0.90;;
41532;SDS011;27262;-35.248;149.138;2022-10-01T01:05:55;5.38;;;0.80;;
41532;SDS011;27262;-35.248;149.138;2022-10-01T01:08:26;4.47;;;0.88;;
41532;SDS011;27262;-35.248;149.138;2022-10-01T01:11:06;3.42;;;1.02;;
41532;SDS011;27262;-35.248;149.138;2022-10-01T01:14:15;2.63;;;0.80;;
41532;SDS011;27262;-35.248;149.138;2022-10-01T01:17:17;3.20;;;0.90;;
41532;SDS011;27262;-35.248;149.138;2022-10-01T01:20:05;3.17;;;0.80;;
41532;SDS011;27262;-35.248;149.138;2022-10-01T01:22:49;2.13;;;0.95;;
41532;SDS011;27262;-35.248;149.138;2022-10-01T01:25:35;6.10;;;0.90;;
41532;SDS011;27262;-35.248;149.138;2022-10-01T01:30:52;2.17;;;0.60;;
41532;SDS011;27262;-35.248;149.138;2022-10-01T01:33:26;2.20;;;0.93;;
41532;SDS011;27262;-35.248;149.138;2022-10-01T01:36:09;2.97;;;0.60;;
41532;SDS011;27262;-35.248;149.138;2022-10-01T01:38:52;2.22;;;0.90;;
41532;SDS011;27262;-35.248;149.138;2022-10-01T01:41:27;2.00;;;0.57;;
41532;SDS011;27262;-35.248;149.138;2022-10-01T01:44:03;2.30;;;0.63;;
41532;SDS011;27262;-35.248;149.138;2022-10-01T01:46:37;2.38;;;0.70;;
41532;SDS011;27262;-35.248;149.138;2022-10-01T01:49:12;4.40;;;0.70;;
41532;SDS011;27262;-35.248;149.138;2022-10-01T01:51:48;3.53;;;0.70;;
41532;SDS011;27262;-35.248;149.138;2022-10-01T01:54:42;3.28;;;0.70;;
41532;SDS011;27262;-35.248;149.138;2022-10-01T01:57:17;3.92;;;0.90;;
41532;SDS011;27262;-35.248;149.138;2022-10-01T01:59:48;2.30;;;0.68;;
41532;SDS011;27262;-35.248;149.138;2022-10-01T02:02:19;2.25;;;0.50;;
41532;SDS011;27262;-35.248;149.138;2022-10-01T02:04:56;2.90;;;0.60;;
41532;SDS011;27262;-35.248;149.138;2022-10-01T02:21:57;2.47;;;0.60;;
41532;SDS011;27262;-35.248;149.138;2022-10-01T02:27:14;1.35;;;0.43;;
41532;SDS011;27262;-35.248;149.138;2022-10-01T02:29:56;1.17;;;0.50;;
41532;SDS011;27262;-35.248;149.138;2022-10-01T02:32:29;1.45;;;0.55;;
41532;SDS011;27262;-35.248;149.138;2022-10-01T02:35:01;2.47;;;0.60;;
41532;SDS011;27262;-35.248;149.138;2022-10-01T02:37:33;1.30;;;0.40;;
41532;SDS011;27262;-35.248;149.138;2022-10-01T02:40:06;2.65;;;0.80;;
41532;SDS011;27262;-35.248;149.138;2022-10-01T02:42:42;2.92;;;0.60;;
41532;SDS011;27262;-35.248;149.138;2022-10-01T02:45:18;2.05;;;0.40;;
41532;SDS011;27262;-35.248;149.138;2022-10-01T02:47:55;2.45;;;0.40;;
41532;SDS011;27262;-35.248;149.138;2022-10-01T02:50:50;6.07;;;0.50;;
41532;SDS011;27262;-35.248;149.138;2022-10-01T02:53:30;2.00;;;0.60;;
41532;SDS011;27262;-35.248;149.138;2022-10-01T02:56:09;3.00;;;0.60;;
41532;SDS011;27262;-35.248;149.138;2022-10-01T02:58:42;2.65;;;0.60;;
41532;SDS011;27262;-35.248;149.138;2022-10-01T03:01:12;3.45;;;0.60;;
41532;SDS011;27262;-35.248;149.138;2022-10-01T03:03:42;1.65;;;0.45;;
41532;SDS011;27262;-35.248;149.138;2022-10-01T03:06:13;2.97;;;0.60;;
41532;SDS011;27262;-35.248;149.138;2022-10-01T03:08:43;2.55;;;0.50;;
41532;SDS011;27262;-35.248;149.138;2022-10-01T03:11:13;2.13;;;0.50;;
41532;SDS011;27262;-35.248;149.138;2022-10-01T03:13:43;2.35;;;0.55;;
41532;SDS011;27262;-35.248;149.138;2022-10-01T03:16:13;1.45;;;0.50;;
41532;SDS011;27262;-35.248;149.138;2022-10-01T03:18:44;2.35;;;0.60;;
41532;SDS011;27262;-35.248;149.138;2022-10-01T03:21:14;1.85;;;0.68;;
41532;SDS011;27262;-35.248;149.138;2022-10-01T03:23:44;1.20;;;0.45;;
41532;SDS011;27262;-35.248;149.138;2022-10-01T03:26:14;3.72;;;0.50;;
41532;SDS011;27262;-35.248;149.138;2022-10-01T03:28:44;2.13;;;0.50;;
41532;SDS011;27262;-35.248;149.138;2022-10-01T03:31:15;3.22;;;0.52;;
41532;SDS011;27262;-35.248;149.138;2022-10-01T03:33:45;1.65;;;0.50;;
41532;SDS011;27262;-35.248;149.138;2022-10-01T03:36:15;3.45;;;0.70;;
41532;SDS011;27262;-35.248;149.138;2022-10-01T03:38:45;0.95;;;0.60;;
41532;SDS011;27262;-35.248;149.138;2022-10-01T03:41:15;3.53;;;0.70;;
41532;SDS011;27262;-35.248;149.138;2022-10-01T03:43:45;2.05;;;0.68;;
41532;SDS011;27262;-35.248;149.138;2022-10-01T03:46:16;0.80;;;0.40;;
41532;SDS011;27262;-35.248;149.138;2022-10-01T03:48:46;3.38;;;0.75;;
41532;SDS011;27262;-35.248;149.138;2022-10-01T03:51:17;5.95;;;0.60;;
41532;SDS011;27262;-35.248;149.138;2022-10-01T03:53:48;3.40;;;0.40;;
41532;SDS011;27262;-35.248;149.138;2022-10-01T03:56:18;6.22;;;0.55;;
41532;SDS011;27262;-35.248;149.138;2022-10-01T03:58:48;2.40;;;0.70;;
41532;SDS011;27262;-35.248;149.138;2022-10-01T04:01:19;1.95;;;0.50;;
41532;SDS011;27262;-35.248;149.138;2022-10-01T04:03:49;0.82;;;0.40;;
41532;SDS011;27262;-35.248;149.138;2022-10-01T04:06:20;3.90;;;0.70;;
41532;SDS011;27262;-35.248;149.138;2022-10-01T04:08:50;2.65;;;0.55;;
41532;SDS011;27262;-35.248;149.138;2022-10-01T04:11:20;2.22;;;0.40;;
41532;SDS011;27262;-35.248;149.138;2022-10-01T04:13:51;1.55;;;0.52;;
41532;SDS011;27262;-35.248;149.138;2022-10-01T04:16:22;2.20;;;0.55;;
41532;SDS011;27262;-35.248;149.138;2022-10-01T04:18:53;2.85;;;0.68;;
41532;SDS011;27262;-35.248;149.138;2022-10-01T04:21:23;1.15;;;0.40;;
41532;SDS011;27262;-35.248;149.138;2022-10-01T04:23:53;3.78;;;0.73;;
41532;SDS011;27262;-35.248;149.138;2022-10-01T04:26:23;1.60;;;0.57;;
41532;SDS011;27262;-35.248;149.138;2022-10-01T04:28:54;0.57;;;0.40;;
41532;SDS011;27262;-35.248;149.138;2022-10-01T04:31:24;1.55;;;0.40;;
41532;SDS011;27262;-35.248;149.138;2022-10-01T04:33:55;1.25;;;0.50;;
41532;SDS011;27262;-35.248;149.138;2022-10-01T04:36:26;1.50;;;0.50;;
41532;SDS011;27262;-35.248;149.138;2022-10-01T04:38:56;0.65;;;0.35;;
41532;SDS011;27262;-35.248;149.138;2022-10-01T04:41:29;2.50;;;0.50;;
41532;SDS011;27262;-35.248;149.138;2022-10-01T04:44:00;1.75;;;0.50;;
41532;SDS011;27262;-35.248;149.138;2022-10-01T04:46:31;0.80;;;0.50;;
41532;SDS011;27262;-35.248;149.138;2022-10-01T04:49:01;3.25;;;0.50;;
41532;SDS011;27262;-35.248;149.138;2022-10-01T04:51:31;2.92;;;0.47;;
41532;SDS011;27262;-35.248;149.138;2022-10-01T04:54:02;1.10;;;0.52;;
41532;SDS011;27262;-35.248;149.138;2022-10-01T04:56:32;0.50;;;0.35;;
41532;SDS011;27262;-35.248;149.138;2022-10-01T04:59:02;2.47;;;0.52;;
41532;SDS011;27262;-35.248;149.138;2022-10-01T05:01:32;0.68;;;0.32;;
41532;SDS011;27262;-35.248;149.138;2022-10-01T05:04:03;1.67;;;0.50;;
41532;SDS011;27262;-35.248;149.138;2022-10-01T05:06:33;1.05;;;0.40;;
41532;SDS011;27262;-35.248;149.138;2022-10-01T05:09:04;1.40;;;0.47;;
41532;SDS011;27262;-35.248;149.138;2022-10-01T05:11:34;2.25;;;0.55;;
41532;SDS011;27262;-35.248;149.138;2022-10-01T05:14:06;1.48;;;0.47;;
41532;SDS011;27262;-35.248;149.138;2022-10-01T05:16:36;1.50;;;0.40;;
41532;SDS011;27262;-35.248;149.138;2022-10-01T05:19:06;3.58;;;0.60;;
41532;SDS011;27262;-35.248;149.138;2022-10-01T05:21:37;1.70;;;0.40;;
41532;SDS011;27262;-35.248;149.138;2022-10-01T05:24:07;0.50;;;0.40;;
41532;SDS011;27262;-35.248;149.138;2022-10-01T05:26:37;3.42;;;0.50;;
41532;SDS011;27262;-35.248;149.138;2022-10-01T05:29:07;1.35;;;0.45;;
41532;SDS011;27262;-35.248;149.138;2022-10-01T05:31:38;1.52;;;0.40;;
41532;SDS011;27262;-35.248;149.138;2022-10-01T05:34:11;1.75;;;0.43;;
41532;SDS011;27262;-35.248;149.138;2022-10-01T05:36:41;3.10;;;0.40;;
41532;SDS011;27262;-35.248;149.138;2022-10-01T05:39:12;1.25;;;0.38;;
41532;SDS011;27262;-35.248;149.138;2022-10-01T05:41:42;2.25;;;0.40;;
41532;SDS011;27262;-35.248;149.138;2022-10-01T05:44:12;0.82;;;0.43;;
41532;SDS011;27262;-35.248;149.138;2022-10-01T05:46:42;1.05;;;0.43;;
41532;SDS011;27262;-35.248;149.138;2022-10-01T05:49:12;1.88;;;0.47;;
41532;SDS011;27262;-35.248;149.138;2022-10-01T05:51:43;0.98;;;0.40;;
41532;SDS011;27262;-35.248;149.138;2022-10-01T05:54:13;0.82;;;0.40;;
41532;SDS011;27262;-35.248;149.138;2022-10-01T05:56:46;1.10;;;0.45;;
41532;SDS011;27262;-35.248;149.138;2022-10-01T05:59:17;0.68;;;0.40;;
41532;SDS011;27262;-35.248;149.138;2022-10-01T06:01:48;0.60;;;0.40;;
41532;SDS011;27262;-35.248;149.138;2022-10-01T06:04:19;0.95;;;0.32;;
41532;SDS011;27262;-35.248;149.138;2022-10-01T06:06:49;1.10;;;0.38;;
41532;SDS011;27262;-35.248;149.138;2022-10-01T06:09:20;1.30;;;0.38;;
41532;SDS011;27262;-35.248;149.138;2022-10-01T06:11:51;0.95;;;0.30;;
41532;SDS011;27262;-35.248;149.138;2022-10-01T06:14:21;1.15;;;0.40;;
41532;SDS011;27262;-35.248;149.138;2022-10-01T06:16:52;1.77;;;0.32;;
41532;SDS011;27262;-35.248;149.138;2022-10-01T06:19:22;0.82;;;0.40;;
41532;SDS011;27262;-35.248;149.138;2022-10-01T06:21:52;1.48;;;0.40;;
41532;SDS011;27262;-35.248;149.138;2022-10-01T06:24:22;2.10;;;0.50;;
41532;SDS011;27262;-35.248;149.138;2022-10-01T06:26:53;0.43;;;0.30;;
41532;SDS011;27262;-35.248;149.138;2022-10-01T06:29:23;0.85;;;0.40;;
41532;SDS011;27262;-35.248;149.138;2022-10-01T06:31:53;1.33;;;0.40;;
41532;SDS011;27262;-35.248;149.138;2022-10-01T06:34:24;0.50;;;0.40;;
41532;SDS011;27262;-35.248;149.138;2022-10-01T06:36:54;0.75;;;0.30;;
41532;SDS011;27262;-35.248;149.138;2022-10-01T06:39:24;0.40;;;0.20;;
41532;SDS011;27262;-35.248;149.138;2022-10-01T06:41:54;0.75;;;0.30;;
41532;SDS011;27262;-35.248;149.138;2022-10-01T06:44:25;1.23;;;0.50;;
41532;SDS011;27262;-35.248;149.138;2022-10-01T06:46:55;1.27;;;0.30;;
41532;SDS011;27262;-35.248;149.138;2022-10-01T06:49:25;0.90;;;0.30;;
41532;SDS011;27262;-35.248;149.138;2022-10-01T06:51:55;2.38;;;0.40;;
41532;SDS011;27262;-35.248;149.138;2022-10-01T06:54:43;1.38;;;0.40;;
41532;SDS011;27262;-35.248;149.138;2022-10-01T06:57:13;0.50;;;0.32;;
41532;SDS011;27262;-35.248;149.138;2022-10-01T06:59:44;0.85;;;0.38;;
41532;SDS011;27262;-35.248;149.138;2022-10-01T07:02:19;0.40;;;0.30;;
41532;SDS011;27262;-35.248;149.138;2022-10-01T07:04:59;0.52;;;0.30;;
41532;SDS011;27262;-35.248;149.138;2022-10-01T07:07:30;0.70;;;0.20;;
41532;SDS011;27262;-35.248;149.138;2022-10-01T07:10:04;0.70;;;0.40;;
41532;SDS011;27262;-35.248;149.138;2022-10-01T07:12:36;0.40;;;0.20;;
41532;SDS011;27262;-35.248;149.138;2022-10-01T07:15:07;0.82;;;0.30;;
41532;SDS011;27262;-35.248;149.138;2022-10-01T07:17:41;0.20;;;0.20;;
41532;SDS011;27262;-35.248;149.138;2022-10-01T07:20:14;0.80;;;0.20;;
41532;SDS011;27262;-35.248;149.138;2022-10-01T07:22:46;0.93;;;0.50;;
41532;SDS011;27262;-35.248;149.138;2022-10-01T07:25:17;1.08;;;0.40;;
41532;SDS011;27262;-35.248;149.138;2022-10-01T07:27:48;0.65;;;0.30;;
41532;SDS011;27262;-35.248;149.138;2022-10-01T07:30:18;0.38;;;0.25;;
41532;SDS011;27262;-35.248;149.138;2022-10-01T07:32:48;0.40;;;0.30;;
41532;SDS011;27262;-35.248;149.138;2022-10-01T07:35:19;0.60;;;0.38;;
41532;SDS011;27262;-35.248;149.138;2022-10-01T07:37:50;0.82;;;0.30;;
41532;SDS011;27262;-35.248;149.138;2022-10-01T07:40:22;0.38;;;0.35;;
41532;SDS011;27262;-35.248;149.138;2022-10-01T07:42:55;0.30;;;0.30;;
41532;SDS011;27262;-35.248;149.138;2022-10-01T07:45:26;0.88;;;0.40;;
41532;SDS011;27262;-35.248;149.138;2022-10-01T07:47:58;0.35;;;0.30;;
41532;SDS011;27262;-35.248;149.138;2022-10-01T07:50:30;0.63;;;0.30;;
41532;SDS011;27262;-35.248;149.138;2022-10-01T07:53:00;0.45;;;0.30;;
41532;SDS011;27262;-35.248;149.138;2022-10-01T07:55:31;0.30;;;0.20;;
41532;SDS011;27262;-35.248;149.138;2022-10-01T07:58:02;0.43;;;0.30;;
41532;SDS011;27262;-35.248;149.138;2022-10-01T08:00:33;1.70;;;0.30;;
41532;SDS011;27262;-35.248;149.138;2022-10-01T08:03:04;0.30;;;0.25;;
41532;SDS011;27262;-35.248;149.138;2022-10-01T08:05:34;0.50;;;0.30;;
41532;SDS011;27262;-35.248;149.138;2022-10-01T08:08:06;1.45;;;0.40;;
41532;SDS011;27262;-35.248;149.138;2022-10-01T08:10:37;1.25;;;0.43;;
41532;SDS011;27262;-35.248;149.138;2022-10-01T08:13:10;0.80;;;0.32;;
41532;SDS011;27262;-35.248;149.138;2022-10-01T08:15:45;0.85;;;0.38;;
41532;SDS011;27262;-35.248;149.138;2022-10-01T08:18:21;1.10;;;0.40;;
41532;SDS011;27262;-35.248;149.138;2022-10-01T08:20:51;1.67;;;0.30;;
41532;SDS011;27262;-35.248;149.138;2022-10-01T08:23:22;0.50;;;0.20;;
41532;SDS011;27262;-35.248;149.138;2022-10-01T08:25:57;1.85;;;0.30;;
41532;SDS011;27262;-35.248;149.138;2022-10-01T08:28:36;1.38;;;0.40;;
41532;SDS011;27262;-35.248;149.138;2022-10-01T08:31:07;0.45;;;0.30;;
41532;SDS011;27262;-35.248;149.138;2022-10-01T08:33:37;0.65;;;0.30;;
41532;SDS011;27262;-35.248;149.138;2022-10-01T08:36:08;0.65;;;0.38;;
41532;SDS011;27262;-35.248;149.138;2022-10-01T08:38:39;1.08;;;0.60;;
41532;SDS011;27262;-35.248;149.138;2022-10-01T08:44:04;1.45;;;0.68;;
41532;SDS011;27262;-35.248;149.138;2022-10-01T08:46:35;1.23;;;0.60;;
41532;SDS011;27262;-35.248;149.138;2022-10-01T08:49:09;2.22;;;0.90;;
41532;SDS011;27262;-35.248;149.138;2022-10-01T08:51:45;2.65;;;0.73;;
41532;SDS011;27262;-35.248;149.138;2022-10-01T08:56:58;1.30;;;0.77;;
41532;SDS011;27262;-35.248;149.138;2022-10-01T08:59:37;1.25;;;0.90;;
41532;SDS011;27262;-35.248;149.138;2022-10-01T09:04:49;3.17;;;1.33;;
41532;SDS011;27262;-35.248;149.138;2022-10-01T09:27:18;3.85;;;1.60;;
41532;SDS011;27262;-35.248;149.138;2022-10-01T09:29:59;2.80;;;1.63;;
41532;SDS011;27262;-35.248;149.138;2022-10-01T09:32:39;2.35;;;1.73;;
41532;SDS011;27262;-35.248;149.138;2022-10-01T09:35:41;2.63;;;1.55;;
41532;SDS011;27262;-35.248;149.138;2022-10-01T09:38:46;2.10;;;1.17;;
41532;SDS011;27262;-35.248;149.138;2022-10-01T09:41:26;4.72;;;1.60;;
41532;SDS011;27262;-35.248;149.138;2022-10-01T09:43:59;1.50;;;1.00;;
41532;SDS011;27262;-35.248;149.138;2022-10-01T09:46:30;2.13;;;1.27;;
41532;SDS011;27262;-35.248;149.138;2022-10-01T09:49:02;1.60;;;1.10;;
41532;SDS011;27262;-35.248;149.138;2022-10-01T09:52:21;1.95;;;0.82;;
41532;SDS011;27262;-35.248;149.138;2022-10-01T09:54:58;1.65;;;1.00;;
41532;SDS011;27262;-35.248;149.138;2022-10-01T09:57:34;1.00;;;0.77;;
41532;SDS011;27262;-35.248;149.138;2022-10-01T10:02:47;2.40;;;1.17;;
41532;SDS011;27262;-35.248;149.138;2022-10-01T10:05:23;1.77;;;1.00;;
41532;SDS011;27262;-35.248;149.138;2022-10-01T10:07:59;2.95;;;0.82;;
41532;SDS011;27262;-35.248;149.138;2022-10-01T10:10:58;1.38;;;0.70;;
41532;SDS011;27262;-35.248;149.138;2022-10-01T10:16:34;0.95;;;0.70;;
41532;SDS011;27262;-35.248;149.138;2022-10-01T10:19:25;1.90;;;0.65;;
41532;SDS011;27262;-35.248;149.138;2022-10-01T10:21:57;1.52;;;0.80;;
41532;SDS011;27262;-35.248;149.138;2022-10-01T10:24:40;1.42;;;0.55;;
41532;SDS011;27262;-35.248;149.138;2022-10-01T10:27:20;0.70;;;0.52;;
41532;SDS011;27262;-35.248;149.138;2022-10-01T10:32:36;0.88;;;0.57;;
41532;SDS011;27262;-35.248;149.138;2022-10-01T10:35:10;1.10;;;0.60;;
41532;SDS011;27262;-35.248;149.138;2022-10-01T10:37:48;0.77;;;0.40;;
41532;SDS011;27262;-35.248;149.138;2022-10-01T10:40:22;1.00;;;0.70;;
41532;SDS011;27262;-35.248;149.138;2022-10-01T10:42:56;1.48;;;0.60;;
41532;SDS011;27262;-35.248;149.138;2022-10-01T10:45:34;1.85;;;0.57;;
41532;SDS011;27262;-35.248;149.138;2022-10-01T10:48:10;1.00;;;0.60;;
41532;SDS011;27262;-35.248;149.138;2022-10-01T10:50:46;0.85;;;0.60;;
41532;SDS011;27262;-35.248;149.138;2022-10-01T10:55:54;0.90;;;0.65;;
41532;SDS011;27262;-35.248;149.138;2022-10-01T10:58:33;0.47;;;0.40;;
41532;SDS011;27262;-35.248;149.138;2022-10-01T11:01:10;0.52;;;0.40;;
41532;SDS011;27262;-35.248;149.138;2022-10-01T11:03:49;0.82;;;0.50;;
41532;SDS011;27262;-35.248;149.138;2022-10-01T11:06:23;0.60;;;0.50;;
41532;SDS011;27262;-35.248;149.138;2022-10-01T11:09:00;0.80;;;0.50;;
41532;SDS011;27262;-35.248;149.138;2022-10-01T11:20:18;2.55;;;0.50;;
41532;SDS011;27262;-35.248;149.138;2022-10-01T11:22:55;2.33;;;0.50;;
41532;SDS011;27262;-35.248;149.138;2022-10-01T11:26:27;2.20;;;0.73;;
41532;SDS011;27262;-35.248;149.138;2022-10-01T11:40:21;1.00;;;0.60;;
41532;SDS011;27262;-35.248;149.138;2022-10-01T11:42:58;0.93;;;0.50;;
41532;SDS011;27262;-35.248;149.138;2022-10-01T11:45:48;1.17;;;0.60;;
41532;SDS011;27262;-35.248;149.138;2022-10-01T11:51:04;0.90;;;0.60;;
41532;SDS011;27262;-35.248;149.138;2022-10-01T11:53:45;0.43;;;0.30;;
41532;SDS011;27262;-35.248;149.138;2022-10-01T12:05:20;0.50;;;0.38;;
41532;SDS011;27262;-35.248;149.138;2022-10-01T12:16:00;0.50;;;0.40;;
41532;SDS011;27262;-35.248;149.138;2022-10-01T12:21:33;1.10;;;0.55;;
41532;SDS011;27262;-35.248;149.138;2022-10-01T12:24:21;3.78;;;0.50;;
41532;SDS011;27262;-35.248;149.138;2022-10-01T12:32:54;2.38;;;0.40;;
41532;SDS011;27262;-35.248;149.138;2022-10-01T12:38:57;1.25;;;0.22;;
41532;SDS011;27262;-35.248;149.138;2022-10-01T12:52:37;2.05;;;0.50;;
41532;SDS011;27262;-35.248;149.138;2022-10-01T13:01:41;1.05;;;0.40;;
41532;SDS011;27262;-35.248;149.138;2022-10-01T13:06:53;2.25;;;0.30;;
41532;SDS011;27262;-35.248;149.138;2022-10-01T13:12:35;1.70;;;0.60;;
41532;SDS011;27262;-35.248;149.138;2022-10-01T13:15:33;2.53;;;0.50;;
41532;SDS011;27262;-35.248;149.138;2022-10-01T13:18:44;1.75;;;0.50;;
41532;SDS011;27262;-35.248;149.138;2022-10-01T13:21:49;2.25;;;0.50;;
41532;SDS011;27262;-35.248;149.138;2022-10-01T13:24:49;1.63;;;0.40;;
41532;SDS011;27262;-35.248;149.138;2022-10-01T13:27:48;2.25;;;0.60;;
41532;SDS011;27262;-35.248;149.138;2022-10-01T13:33:30;1.30;;;0.40;;
41532;SDS011;27262;-35.248;149.138;2022-10-01T13:36:04;2.03;;;0.70;;
41532;SDS011;27262;-35.248;149.138;2022-10-01T13:38:42;1.52;;;0.63;;
41532;SDS011;27262;-35.248;149.138;2022-10-01T13:43:58;0.55;;;0.40;;
41532;SDS011;27262;-35.248;149.138;2022-10-01T13:46:51;1.05;;;0.50;;
41532;SDS011;27262;-35.248;149.138;2022-10-01T13:49:28;2.17;;;0.38;;
41532;SDS011;27262;-35.248;149.138;2022-10-01T13:52:00;3.35;;;0.88;;
41532;SDS011;27262;-35.248;149.138;2022-10-01T13:54:44;0.98;;;0.40;;
41532;SDS011;27262;-35.248;149.138;2022-10-01T13:57:31;1.73;;;0.68;;
41532;SDS011;27262;-35.248;149.138;2022-10-01T14:03:04;1.85;;;0.50;;
41532;SDS011;27262;-35.248;149.138;2022-10-01T14:05:53;1.27;;;0.52;;
41532;SDS011;27262;-35.248;149.138;2022-10-01T14:08:33;1.30;;;0.68;;
41532;SDS011;27262;-35.248;149.138;2022-10-01T14:11:11;2.25;;;0.80;;
41532;SDS011;27262;-35.248;149.138;2022-10-01T14:14:12;1.00;;;0.52;;
41532;SDS011;27262;-35.248;149.138;2022-10-01T14:17:14;2.03;;;0.73;;
41532;SDS011;27262;-35.248;149.138;2022-10-01T14:19:53;2.25;;;0.80;;
41532;SDS011;27262;-35.248;149.138;2022-10-01T14:22:32;2.42;;;0.80;;
41532;SDS011;27262;-35.248;149.138;2022-10-01T14:28:37;3.47;;;1.05;;
41532;SDS011;27262;-35.248;149.138;2022-10-01T14:36:51;1.98;;;0.93;;
41532;SDS011;27262;-35.248;149.138;2022-10-01T14:39:27;1.63;;;0.60;;
41532;SDS011;27262;-35.248;149.138;2022-10-01T14:42:05;2.63;;;0.82;;
41532;SDS011;27262;-35.248;149.138;2022-10-01T14:44:46;2.67;;;1.00;;
41532;SDS011;27262;-35.248;149.138;2022-10-01T14:49:48;3.28;;;0.80;;
41532;SDS011;27262;-35.248;149.138;2022-10-01T14:52:25;2.45;;;0.77;;
41532;SDS011;27262;-35.248;149.138;2022-10-01T14:57:38;10.35;;;1.27;;
41532;SDS011;27262;-35.248;149.138;2022-10-01T15:00:18;4.57;;;1.23;;
41532;SDS011;27262;-35.248;149.138;2022-10-01T15:02:51;3.78;;;0.85;;
41532;SDS011;27262;-35.248;149.138;2022-10-01T15:05:32;3.63;;;1.00;;
41532;SDS011;27262;-35.248;149.138;2022-10-01T15:08:11;2.75;;;0.80;;
41532;SDS011;27262;-35.248;149.138;2022-10-01T15:10:56;2.85;;;1.00;;
41532;SDS011;27262;-35.248;149.138;2022-10-01T15:13:32;1.48;;;0.70;;
41532;SDS011;27262;-35.248;149.138;2022-10-01T15:16:13;2.42;;;1.00;;
41532;SDS011;27262;-35.248;149.138;2022-10-01T15:18:55;3.05;;;1.00;;
41532;SDS011;27262;-35.248;149.138;2022-10-01T15:21:35;2.03;;;0.80;;
41532;SDS011;27262;-35.248;149.138;2022-10-01T15:26:48;3.70;;;1.38;;
41532;SDS011;27262;-35.248;149.138;2022-10-01T15:29:20;3.65;;;0.80;;
41532;SDS011;27262;-35.248;149.138;2022-10-01T15:31:50;4.40;;;1.20;;
41532;SDS011;27262;-35.248;149.138;2022-10-01T15:34:24;5.22;;;1.45;;
41532;SDS011;27262;-35.248;149.138;2022-10-01T15:36:55;4.13;;;1.20;;
41532;SDS011;27262;-35.248;149.138;2022-10-01T15:39:36;5.85;;;1.40;;
41532;SDS011;27262;-35.248;149.138;2022-10-01T15:42:25;4.75;;;1.50;;
41532;SDS011;27262;-35.248;149.138;2022-10-01T15:47:37;5.50;;;1.35;;
41532;SDS011;27262;-35.248;149.138;2022-10-01T15:52:47;3.45;;;1.23;;
41532;SDS011;27262;-35.248;149.138;2022-10-01T15:57:56;2.45;;;1.00;;
41532;SDS011;27262;-35.248;149.138;2022-10-01T16:03:20;4.80;;;1.10;;
41532;SDS011;27262;-35.248;149.138;2022-10-01T16:05:55;3.72;;;1.38;;
41532;SDS011;27262;-35.248;149.138;2022-10-01T16:08:29;2.03;;;0.80;;
41532;SDS011;27262;-35.248;149.138;2022-10-01T16:11:16;5.38;;;1.35;;
41532;SDS011;27262;-35.248;149.138;2022-10-01T16:13:49;3.38;;;1.00;;
41532;SDS011;27262;-35.248;149.138;2022-10-01T16:16:24;5.70;;;1.15;;
41532;SDS011;27262;-35.248;149.138;2022-10-01T16:19:20;2.72;;;1.10;;
41532;SDS011;27262;-35.248;149.138;2022-10-01T16:25:02;2.97;;;1.15;;
41532;SDS011;27262;-35.248;149.138;2022-10-01T16:27:55;3.15;;;1.10;;
41532;SDS011;27262;-35.248;149.138;2022-10-01T16:30:32;4.80;;;1.13;;
41532;SDS011;27262;-35.248;149.138;2022-10-01T16:33:03;2.63;;;0.80;;
41532;SDS011;27262;-35.248;149.138;2022-10-01T16:35:34;2.38;;;0.88;;
41532;SDS011;27262;-35.248;149.138;2022-10-01T16:38:07;4.22;;;1.02;;
41532;SDS011;27262;-35.248;149.138;2022-10-01T16:40:41;3.70;;;1.10;;
41532;SDS011;27262;-35.248;149.138;2022-10-01T16:43:16;2.28;;;1.00;;
41532;SDS011;27262;-35.248;149.138;2022-10-01T16:45:51;2.42;;;0.77;;
41532;SDS011;27262;-35.248;149.138;2022-10-01T16:48:21;2.17;;;0.95;;
41532;SDS011;27262;-35.248;149.138;2022-10-01T16:50:52;3.33;;;1.02;;
41532;SDS011;27262;-35.248;149.138;2022-10-01T16:53:26;2.88;;;0.70;;
41532;SDS011;27262;-35.248;149.138;2022-10-01T16:55:57;2.42;;;0.90;;
41532;SDS011;27262;-35.248;149.138;2022-10-01T16:58:27;4.55;;;1.00;;
41532;SDS011;27262;-35.248;149.138;2022-10-01T17:00:58;2.17;;;0.90;;
41532;SDS011;27262;-35.248;149.138;2022-10-01T17:03:34;4.70;;;1.23;;
41532;SDS011;27262;-35.248;149.138;2022-10-01T17:06:04;2.67;;;0.88;;
41532;SDS011;27262;-35.248;149.138;2022-10-01T17:08:35;1.98;;;0.80;;
41532;SDS011;27262;-35.248;149.138;2022-10-01T17:11:05;2.85;;;0.82;;
41532;SDS011;27262;-35.248;149.138;2022-10-01T17:13:38;2.95;;;0.75;;
41532;SDS011;27262;-35.248;149.138;2022-10-01T17:16:09;2.75;;;0.82;;
41532;SDS011;27262;-35.248;149.138;2022-10-01T17:18:40;2.90;;;0.75;;
41532;SDS011;27262;-35.248;149.138;2022-10-01T17:21:11;2.33;;;0.63;;
41532;SDS011;27262;-35.248;149.138;2022-10-01T17:23:42;3.13;;;0.88;;
41532;SDS011;27262;-35.248;149.138;2022-10-01T17:26:19;2.70;;;0.93;;
41532;SDS011;27262;-35.248;149.138;2022-10-01T17:28:49;3.53;;;0.98;;
41532;SDS011;27262;-35.248;149.138;2022-10-01T17:31:19;2.03;;;0.77;;
41532;SDS011;27262;-35.248;149.138;2022-10-01T17:33:49;1.77;;;0.80;;
41532;SDS011;27262;-35.248;149.138;2022-10-01T17:36:20;2.33;;;0.80;;
41532;SDS011;27262;-35.248;149.138;2022-10-01T17:38:50;1.42;;;0.70;;
41532;SDS011;27262;-35.248;149.138;2022-10-01T17:41:20;2.00;;;0.60;;
41532;SDS011;27262;-35.248;149.138;2022-10-01T17:43:51;1.52;;;0.70;;
41532;SDS011;27262;-35.248;149.138;2022-10-01T17:46:21;2.83;;;0.55;;
41532;SDS011;27262;-35.248;149.138;2022-10-01T17:48:55;1.98;;;0.60;;
41532;SDS011;27262;-35.248;149.138;2022-10-01T17:51:26;2.35;;;0.55;;